Charter Quote
Worldwide +1-877-727-2538 Call
Select Language Lang
SAFETY RELIABILITY EXPERIENCE

Private Jet Charter Services - Changde Airport (ZGCD)

Paramount Business Jets offers private jet charter flights and luxury airliner charters to and from Changde Airport.

AIRPORT INFORMATION
ICAOZGCD
IATACGD
LOCATIONChangde, China
FACILITY TYPEAIRPORT

At Paramount Business Jets you can hire chartered private jets to and from Changde Airport with as little as 4 hours of notice. All flights booked via Paramount Business Jets are operated by certified direct air carriers that meet and exceed the FAA part 135 and 121 protocol or a foreign equivalent safety authority. Furthermore, Paramount Business Jets subscribes to ARGUS for their third party safety checks of operators, aircraft, and crews prior each and every flight to and from Changde Airport and worldwide.

  • Quote a trip using Changde Airport or call us 24/7 - 365 days a year at +1-877-727-2538.
Questions? Call +1-877-727-2538

METAR Weather Data at Changde Airport, ZGCD, CGD

STATIONZGCD
OBSERVEDTue Feb 17, 17:00 UTC
NOWTue Jul 16, 04:55 UTC
AGE38627:55 hr ago
WINDW at 2 mph
VISIBILITY8 miles
CONDITIONSmist
METARZGCD 171700Z 28001MPS 5000 BR NSC 14/10 Q1018 NOSIG

Call us on +1-877-727-2538 (24 Hours) to Hire a Private Jet or Get a Quick Quote.

Find Airports Near any Location

Processing
...